<?xml version="1.0" encoding="UTF-8" standalone="no" ?>
<gpx xmlns="http://www.topografix.com/GPX/1/1" xmlns:xsi="http://www.w3.org/2001/XMLSchema-instance" xsi:schemaLocation="http://www.topografix.com/GPX/1/1 http://www.topografix.com/GPX/1/1/gpx.xsd" version="1.1" creator="VisuGPX - https://www.visugpx.com">
  <metadata>
    <name>Balade en Thudinie - De Lobbes a Thuin</name>
  </metadata>
  <trk>
    <name><![CDATA[Balade en Thudinie - De Lobbes à Thuin]]></name>
    <trkseg>
      <trkpt lat="50.34663" lon="4.26602">
        <ele>150.023</ele>
        <time>2020-10-30T23:14:01Z</time>
      </trkpt>
      <trkpt lat="50.34641" lon="4.26665">
        <ele>153.083</ele>
        <time>2020-10-30T23:14:41Z</time>
      </trkpt>
      <trkpt lat="50.34619" lon="4.26655">
        <ele>145.011</ele>
        <time>2020-10-30T23:15:21Z</time>
      </trkpt>
      <trkpt lat="50.34603" lon="4.26783">
        <ele>149.008</ele>
        <time>2020-10-30T23:16:01Z</time>
      </trkpt>
      <trkpt lat="50.34605" lon="4.26852">
        <ele>146.063</ele>
        <time>2020-10-30T23:16:41Z</time>
      </trkpt>
      <trkpt lat="50.34593" lon="4.26963">
        <ele>136.029</ele>
        <time>2020-10-30T23:17:21Z</time>
      </trkpt>
      <trkpt lat="50.34596" lon="4.26997">
        <ele>136.014</ele>
        <time>2020-10-30T23:18:01Z</time>
      </trkpt>
      <trkpt lat="50.34612" lon="4.27024">
        <ele>136.082</ele>
        <time>2020-10-30T23:18:41Z</time>
      </trkpt>
      <trkpt lat="50.34641" lon="4.27137">
        <ele>136.042</ele>
        <time>2020-10-30T23:19:21Z</time>
      </trkpt>
      <trkpt lat="50.3466" lon="4.2711">
        <ele>144.078</ele>
        <time>2020-10-30T23:20:01Z</time>
      </trkpt>
      <trkpt lat="50.34675" lon="4.27057">
        <ele>144.021</ele>
        <time>2020-10-30T23:20:41Z</time>
      </trkpt>
      <trkpt lat="50.34683" lon="4.27016">
        <ele>149.035</ele>
        <time>2020-10-30T23:21:21Z</time>
      </trkpt>
      <trkpt lat="50.34684" lon="4.26954">
        <ele>153.049</ele>
        <time>2020-10-30T23:22:01Z</time>
      </trkpt>
      <trkpt lat="50.34692" lon="4.26898">
        <ele>153.002</ele>
        <time>2020-10-30T23:22:41Z</time>
      </trkpt>
      <trkpt lat="50.34708" lon="4.26849">
        <ele>155.022</ele>
        <time>2020-10-30T23:23:21Z</time>
      </trkpt>
      <trkpt lat="50.34726" lon="4.26892">
        <ele>162.008</ele>
        <time>2020-10-30T23:24:01Z</time>
      </trkpt>
      <trkpt lat="50.34747" lon="4.26967">
        <ele>160.045</ele>
        <time>2020-10-30T23:24:41Z</time>
      </trkpt>
      <trkpt lat="50.34823" lon="4.2692">
        <ele>165.051</ele>
        <time>2020-10-30T23:25:21Z</time>
      </trkpt>
      <trkpt lat="50.34846" lon="4.26919">
        <ele>165.066</ele>
        <time>2020-10-30T23:26:01Z</time>
      </trkpt>
      <trkpt lat="50.34883" lon="4.26939">
        <ele>167.024</ele>
        <time>2020-10-30T23:26:41Z</time>
      </trkpt>
      <trkpt lat="50.34936" lon="4.2697">
        <ele>167.074</ele>
        <time>2020-10-30T23:27:21Z</time>
      </trkpt>
      <trkpt lat="50.35133" lon="4.27062">
        <ele>172.04</ele>
        <time>2020-10-30T23:28:01Z</time>
      </trkpt>
      <trkpt lat="50.35224" lon="4.27107">
        <ele>177.073</ele>
        <time>2020-10-30T23:28:41Z</time>
      </trkpt>
      <trkpt lat="50.35186" lon="4.27286">
        <ele>176.067</ele>
        <time>2020-10-30T23:29:21Z</time>
      </trkpt>
      <trkpt lat="50.35107" lon="4.27301">
        <ele>172.067</ele>
        <time>2020-10-30T23:30:01Z</time>
      </trkpt>
      <trkpt lat="50.35081" lon="4.27391">
        <ele>175.081</ele>
        <time>2020-10-30T23:30:41Z</time>
      </trkpt>
      <trkpt lat="50.3507" lon="4.274">
        <ele>175.019</ele>
        <time>2020-10-30T23:31:21Z</time>
      </trkpt>
      <trkpt lat="50.34988" lon="4.27608">
        <ele>172.008</ele>
        <time>2020-10-30T23:32:01Z</time>
      </trkpt>
      <trkpt lat="50.34971" lon="4.27605">
        <ele>172.057</ele>
        <time>2020-10-30T23:32:41Z</time>
      </trkpt>
      <trkpt lat="50.34952" lon="4.27671">
        <ele>160.043</ele>
        <time>2020-10-30T23:33:21Z</time>
      </trkpt>
      <trkpt lat="50.34931" lon="4.2773">
        <ele>162.058</ele>
        <time>2020-10-30T23:34:01Z</time>
      </trkpt>
      <trkpt lat="50.34922" lon="4.27752">
        <ele>162.056</ele>
        <time>2020-10-30T23:34:41Z</time>
      </trkpt>
      <trkpt lat="50.34899" lon="4.2776">
        <ele>162.026</ele>
        <time>2020-10-30T23:35:21Z</time>
      </trkpt>
      <trkpt lat="50.34862" lon="4.27845">
        <ele>139.012</ele>
        <time>2020-10-30T23:36:01Z</time>
      </trkpt>
      <trkpt lat="50.34841" lon="4.2788">
        <ele>142.055</ele>
        <time>2020-10-30T23:36:41Z</time>
      </trkpt>
      <trkpt lat="50.34833" lon="4.27917">
        <ele>142.079</ele>
        <time>2020-10-30T23:37:21Z</time>
      </trkpt>
      <trkpt lat="50.34831" lon="4.27933">
        <ele>142.039</ele>
        <time>2020-10-30T23:38:01Z</time>
      </trkpt>
      <trkpt lat="50.34805" lon="4.2794">
        <ele>142.001</ele>
        <time>2020-10-30T23:38:41Z</time>
      </trkpt>
      <trkpt lat="50.34772" lon="4.27955">
        <ele>121.021</ele>
        <time>2020-10-30T23:39:21Z</time>
      </trkpt>
      <trkpt lat="50.34747" lon="4.27978">
        <ele>129.008</ele>
        <time>2020-10-30T23:40:01Z</time>
      </trkpt>
      <trkpt lat="50.34769" lon="4.27914">
        <ele>121.074</ele>
        <time>2020-10-30T23:40:41Z</time>
      </trkpt>
      <trkpt lat="50.34762" lon="4.2789">
        <ele>121.03</ele>
        <time>2020-10-30T23:41:21Z</time>
      </trkpt>
      <trkpt lat="50.34792" lon="4.27842">
        <ele>139.095</ele>
        <time>2020-10-30T23:42:01Z</time>
      </trkpt>
      <trkpt lat="50.3481" lon="4.27797">
        <ele>139.083</ele>
        <time>2020-10-30T23:42:41Z</time>
      </trkpt>
      <trkpt lat="50.34821" lon="4.27754">
        <ele>134.013</ele>
        <time>2020-10-30T23:43:21Z</time>
      </trkpt>
      <trkpt lat="50.3483" lon="4.27706">
        <ele>128.019</ele>
        <time>2020-10-30T23:44:01Z</time>
      </trkpt>
      <trkpt lat="50.34834" lon="4.27648">
        <ele>128.032</ele>
        <time>2020-10-30T23:44:41Z</time>
      </trkpt>
      <trkpt lat="50.34832" lon="4.27599">
        <ele>131.036</ele>
        <time>2020-10-30T23:45:21Z</time>
      </trkpt>
      <trkpt lat="50.34827" lon="4.27555">
        <ele>131.058</ele>
        <time>2020-10-30T23:46:01Z</time>
      </trkpt>
      <trkpt lat="50.34823" lon="4.27531">
        <ele>138.052</ele>
        <time>2020-10-30T23:46:41Z</time>
      </trkpt>
      <trkpt lat="50.34811" lon="4.27492">
        <ele>138.017</ele>
        <time>2020-10-30T23:47:21Z</time>
      </trkpt>
      <trkpt lat="50.34795" lon="4.27463">
        <ele>138.008</ele>
        <time>2020-10-30T23:48:01Z</time>
      </trkpt>
      <trkpt lat="50.34766" lon="4.27437">
        <ele>121.066</ele>
        <time>2020-10-30T23:48:41Z</time>
      </trkpt>
      <trkpt lat="50.34732" lon="4.27414">
        <ele>121.062</ele>
        <time>2020-10-30T23:49:21Z</time>
      </trkpt>
      <trkpt lat="50.34696" lon="4.27398">
        <ele>115.027</ele>
        <time>2020-10-30T23:50:01Z</time>
      </trkpt>
      <trkpt lat="50.34618" lon="4.27369">
        <ele>113.025</ele>
        <time>2020-10-30T23:50:41Z</time>
      </trkpt>
      <trkpt lat="50.34565" lon="4.2735">
        <ele>113.075</ele>
        <time>2020-10-30T23:51:21Z</time>
      </trkpt>
      <trkpt lat="50.34523" lon="4.27331">
        <ele>116.091</ele>
        <time>2020-10-30T23:52:01Z</time>
      </trkpt>
      <trkpt lat="50.34523" lon="4.27304">
        <ele>116.044</ele>
        <time>2020-10-30T23:52:41Z</time>
      </trkpt>
      <trkpt lat="50.34508" lon="4.27246">
        <ele>117.068</ele>
        <time>2020-10-30T23:53:21Z</time>
      </trkpt>
      <trkpt lat="50.34507" lon="4.27308">
        <ele>116.095</ele>
        <time>2020-10-30T23:54:01Z</time>
      </trkpt>
      <trkpt lat="50.34517" lon="4.27402">
        <ele>121.049</ele>
        <time>2020-10-30T23:54:41Z</time>
      </trkpt>
      <trkpt lat="50.34521" lon="4.27473">
        <ele>129.023</ele>
        <time>2020-10-30T23:55:21Z</time>
      </trkpt>
      <trkpt lat="50.34522" lon="4.27549">
        <ele>129.008</ele>
        <time>2020-10-30T23:56:01Z</time>
      </trkpt>
      <trkpt lat="50.34515" lon="4.27602">
        <ele>129.05</ele>
        <time>2020-10-30T23:56:41Z</time>
      </trkpt>
      <trkpt lat="50.34501" lon="4.27673">
        <ele>127.076</ele>
        <time>2020-10-30T23:57:21Z</time>
      </trkpt>
      <trkpt lat="50.34484" lon="4.27743">
        <ele>126.031</ele>
        <time>2020-10-30T23:58:01Z</time>
      </trkpt>
      <trkpt lat="50.34465" lon="4.27796">
        <ele>122.029</ele>
        <time>2020-10-30T23:58:41Z</time>
      </trkpt>
      <trkpt lat="50.34453" lon="4.2784">
        <ele>125.099</ele>
        <time>2020-10-30T23:59:21Z</time>
      </trkpt>
      <trkpt lat="50.34446" lon="4.27917">
        <ele>122.095</ele>
        <time>2020-10-31T00:00:01Z</time>
      </trkpt>
      <trkpt lat="50.34439" lon="4.27957">
        <ele>122.048</ele>
        <time>2020-10-31T00:00:41Z</time>
      </trkpt>
      <trkpt lat="50.34428" lon="4.27971">
        <ele>119.022</ele>
        <time>2020-10-31T00:01:21Z</time>
      </trkpt>
      <trkpt lat="50.34406" lon="4.27964">
        <ele>119.023</ele>
        <time>2020-10-31T00:02:01Z</time>
      </trkpt>
      <trkpt lat="50.34341" lon="4.27959">
        <ele>118.083</ele>
        <time>2020-10-31T00:02:41Z</time>
      </trkpt>
      <trkpt lat="50.34265" lon="4.27967">
        <ele>123.011</ele>
        <time>2020-10-31T00:03:21Z</time>
      </trkpt>
      <trkpt lat="50.34222" lon="4.27974">
        <ele>123.008</ele>
        <time>2020-10-31T00:04:01Z</time>
      </trkpt>
      <trkpt lat="50.34206" lon="4.28001">
        <ele>122.083</ele>
        <time>2020-10-31T00:04:41Z</time>
      </trkpt>
      <trkpt lat="50.34185" lon="4.2801">
        <ele>122.089</ele>
        <time>2020-10-31T00:05:21Z</time>
      </trkpt>
      <trkpt lat="50.34165" lon="4.28022">
        <ele>122.014</ele>
        <time>2020-10-31T00:06:01Z</time>
      </trkpt>
      <trkpt lat="50.3415" lon="4.28061">
        <ele>118.052</ele>
        <time>2020-10-31T00:06:41Z</time>
      </trkpt>
      <trkpt lat="50.34132" lon="4.28115">
        <ele>118.022</ele>
        <time>2020-10-31T00:07:21Z</time>
      </trkpt>
      <trkpt lat="50.34134" lon="4.28151">
        <ele>119.018</ele>
        <time>2020-10-31T00:08:01Z</time>
      </trkpt>
      <trkpt lat="50.34135" lon="4.28179">
        <ele>119.011</ele>
        <time>2020-10-31T00:08:41Z</time>
      </trkpt>
      <trkpt lat="50.34129" lon="4.28217">
        <ele>120.075</ele>
        <time>2020-10-31T00:09:21Z</time>
      </trkpt>
      <trkpt lat="50.34152" lon="4.28223">
        <ele>120.086</ele>
        <time>2020-10-31T00:10:01Z</time>
      </trkpt>
      <trkpt lat="50.34144" lon="4.2836">
        <ele>118.06</ele>
        <time>2020-10-31T00:10:41Z</time>
      </trkpt>
      <trkpt lat="50.34183" lon="4.2837">
        <ele>118.026</ele>
        <time>2020-10-31T00:11:21Z</time>
      </trkpt>
      <trkpt lat="50.34161" lon="4.28456">
        <ele>116.008</ele>
        <time>2020-10-31T00:12:01Z</time>
      </trkpt>
      <trkpt lat="50.34148" lon="4.28539">
        <ele>117.089</ele>
        <time>2020-10-31T00:12:41Z</time>
      </trkpt>
      <trkpt lat="50.34142" lon="4.28618">
        <ele>117.045</ele>
        <time>2020-10-31T00:13:21Z</time>
      </trkpt>
      <trkpt lat="50.34132" lon="4.28678">
        <ele>117.04</ele>
        <time>2020-10-31T00:14:01Z</time>
      </trkpt>
      <trkpt lat="50.34126" lon="4.28714">
        <ele>117.038</ele>
        <time>2020-10-31T00:14:41Z</time>
      </trkpt>
      <trkpt lat="50.34125" lon="4.28758">
        <ele>121.078</ele>
        <time>2020-10-31T00:15:21Z</time>
      </trkpt>
      <trkpt lat="50.34113" lon="4.28781">
        <ele>121.044</ele>
        <time>2020-10-31T00:16:01Z</time>
      </trkpt>
      <trkpt lat="50.34115" lon="4.28828">
        <ele>120.047</ele>
        <time>2020-10-31T00:16:41Z</time>
      </trkpt>
      <trkpt lat="50.34056" lon="4.28829">
        <ele>120.011</ele>
        <time>2020-10-31T00:17:21Z</time>
      </trkpt>
      <trkpt lat="50.34043" lon="4.28748">
        <ele>121.049</ele>
        <time>2020-10-31T00:18:01Z</time>
      </trkpt>
      <trkpt lat="50.34033" lon="4.28755">
        <ele>149.002</ele>
        <time>2020-10-31T00:18:41Z</time>
      </trkpt>
      <trkpt lat="50.34024" lon="4.2882">
        <ele>154.022</ele>
        <time>2020-10-31T00:19:21Z</time>
      </trkpt>
      <trkpt lat="50.34016" lon="4.28866">
        <ele>154.008</ele>
        <time>2020-10-31T00:20:01Z</time>
      </trkpt>
      <trkpt lat="50.34008" lon="4.28838">
        <ele>154.025</ele>
        <time>2020-10-31T00:20:41Z</time>
      </trkpt>
      <trkpt lat="50.34002" lon="4.28793">
        <ele>154.091</ele>
        <time>2020-10-31T00:21:21Z</time>
      </trkpt>
      <trkpt lat="50.33987" lon="4.288">
        <ele>154.026</ele>
        <time>2020-10-31T00:22:01Z</time>
      </trkpt>
      <trkpt lat="50.33987" lon="4.28733">
        <ele>149.054</ele>
        <time>2020-10-31T00:22:41Z</time>
      </trkpt>
      <trkpt lat="50.33952" lon="4.28707">
        <ele>162.094</ele>
        <time>2020-10-31T00:23:21Z</time>
      </trkpt>
      <trkpt lat="50.3394" lon="4.28703">
        <ele>162.08</ele>
        <time>2020-10-31T00:24:01Z</time>
      </trkpt>
      <trkpt lat="50.33931" lon="4.28748">
        <ele>163.093</ele>
        <time>2020-10-31T00:24:41Z</time>
      </trkpt>
      <trkpt lat="50.33917" lon="4.28807">
        <ele>165.027</ele>
        <time>2020-10-31T00:25:21Z</time>
      </trkpt>
      <trkpt lat="50.33901" lon="4.28872">
        <ele>165.085</ele>
        <time>2020-10-31T00:26:01Z</time>
      </trkpt>
      <trkpt lat="50.339" lon="4.28937">
        <ele>168.089</ele>
        <time>2020-10-31T00:26:41Z</time>
      </trkpt>
      <trkpt lat="50.33894" lon="4.29028">
        <ele>172.017</ele>
        <time>2020-10-31T00:27:21Z</time>
      </trkpt>
      <trkpt lat="50.33889" lon="4.2905">
        <ele>173.008</ele>
        <time>2020-10-31T00:28:01Z</time>
      </trkpt>
      <trkpt lat="50.33876" lon="4.29047">
        <ele>173.089</ele>
        <time>2020-10-31T00:28:41Z</time>
      </trkpt>
      <trkpt lat="50.33853" lon="4.29085">
        <ele>164.055</ele>
        <time>2020-10-31T00:29:21Z</time>
      </trkpt>
      <trkpt lat="50.3384" lon="4.29098">
        <ele>164.04</ele>
        <time>2020-10-31T00:30:01Z</time>
      </trkpt>
      <trkpt lat="50.3382" lon="4.29094">
        <ele>164.078</ele>
        <time>2020-10-31T00:30:41Z</time>
      </trkpt>
      <trkpt lat="50.33828" lon="4.28972">
        <ele>153.048</ele>
        <time>2020-10-31T00:31:21Z</time>
      </trkpt>
      <trkpt lat="50.33807" lon="4.28921">
        <ele>148.044</ele>
        <time>2020-10-31T00:32:01Z</time>
      </trkpt>
      <trkpt lat="50.33798" lon="4.28867">
        <ele>147.097</ele>
        <time>2020-10-31T00:32:41Z</time>
      </trkpt>
      <trkpt lat="50.33793" lon="4.28817">
        <ele>147.071</ele>
        <time>2020-10-31T00:33:21Z</time>
      </trkpt>
      <trkpt lat="50.33799" lon="4.28788">
        <ele>145.017</ele>
        <time>2020-10-31T00:34:01Z</time>
      </trkpt>
      <trkpt lat="50.33811" lon="4.28736">
        <ele>145.087</ele>
        <time>2020-10-31T00:34:41Z</time>
      </trkpt>
      <trkpt lat="50.33827" lon="4.28692">
        <ele>141.015</ele>
        <time>2020-10-31T00:35:21Z</time>
      </trkpt>
      <trkpt lat="50.3386" lon="4.2867">
        <ele>141.008</ele>
        <time>2020-10-31T00:36:01Z</time>
      </trkpt>
      <trkpt lat="50.33853" lon="4.28577">
        <ele>134.092</ele>
        <time>2020-10-31T00:36:41Z</time>
      </trkpt>
      <trkpt lat="50.33857" lon="4.2854">
        <ele>126.038</ele>
        <time>2020-10-31T00:37:21Z</time>
      </trkpt>
      <trkpt lat="50.33872" lon="4.28499">
        <ele>126.033</ele>
        <time>2020-10-31T00:38:01Z</time>
      </trkpt>
      <trkpt lat="50.33888" lon="4.28467">
        <ele>152.051</ele>
        <time>2020-10-31T00:38:41Z</time>
      </trkpt>
      <trkpt lat="50.33896" lon="4.28437">
        <ele>136.031</ele>
        <time>2020-10-31T00:39:21Z</time>
      </trkpt>
      <trkpt lat="50.33896" lon="4.28402">
        <ele>136.047</ele>
        <time>2020-10-31T00:40:01Z</time>
      </trkpt>
      <trkpt lat="50.33876" lon="4.28395">
        <ele>136.02</ele>
        <time>2020-10-31T00:40:41Z</time>
      </trkpt>
      <trkpt lat="50.33864" lon="4.28375">
        <ele>119.084</ele>
        <time>2020-10-31T00:41:21Z</time>
      </trkpt>
      <trkpt lat="50.33859" lon="4.28358">
        <ele>119.068</ele>
        <time>2020-10-31T00:42:01Z</time>
      </trkpt>
      <trkpt lat="50.33861" lon="4.2834">
        <ele>119.042</ele>
        <time>2020-10-31T00:42:41Z</time>
      </trkpt>
      <trkpt lat="50.33858" lon="4.28314">
        <ele>119.026</ele>
        <time>2020-10-31T00:43:21Z</time>
      </trkpt>
      <trkpt lat="50.33861" lon="4.28295">
        <ele>119.008</ele>
        <time>2020-10-31T00:44:01Z</time>
      </trkpt>
      <trkpt lat="50.33875" lon="4.28278">
        <ele>125.037</ele>
        <time>2020-10-31T00:44:41Z</time>
      </trkpt>
      <trkpt lat="50.33872" lon="4.28246">
        <ele>125.013</ele>
        <time>2020-10-31T00:45:21Z</time>
      </trkpt>
      <trkpt lat="50.33874" lon="4.28211">
        <ele>125.068</ele>
        <time>2020-10-31T00:46:01Z</time>
      </trkpt>
      <trkpt lat="50.33856" lon="4.28186">
        <ele>127.016</ele>
        <time>2020-10-31T00:46:41Z</time>
      </trkpt>
      <trkpt lat="50.33858" lon="4.28131">
        <ele>127.016</ele>
        <time>2020-10-31T00:47:21Z</time>
      </trkpt>
      <trkpt lat="50.3388" lon="4.28068">
        <ele>123.012</ele>
        <time>2020-10-31T00:48:01Z</time>
      </trkpt>
      <trkpt lat="50.33946" lon="4.28014">
        <ele>127.095</ele>
        <time>2020-10-31T00:48:41Z</time>
      </trkpt>
      <trkpt lat="50.34013" lon="4.27965">
        <ele>120.069</ele>
        <time>2020-10-31T00:49:21Z</time>
      </trkpt>
      <trkpt lat="50.33996" lon="4.27926">
        <ele>122.088</ele>
        <time>2020-10-31T00:50:01Z</time>
      </trkpt>
      <trkpt lat="50.33981" lon="4.27897">
        <ele>122.024</ele>
        <time>2020-10-31T00:50:41Z</time>
      </trkpt>
      <trkpt lat="50.33967" lon="4.27878">
        <ele>122.026</ele>
        <time>2020-10-31T00:51:21Z</time>
      </trkpt>
      <trkpt lat="50.33952" lon="4.27868">
        <ele>144.008</ele>
        <time>2020-10-31T00:52:01Z</time>
      </trkpt>
      <trkpt lat="50.33948" lon="4.27825">
        <ele>144.039</ele>
        <time>2020-10-31T00:52:41Z</time>
      </trkpt>
      <trkpt lat="50.33949" lon="4.2777">
        <ele>156.015</ele>
        <time>2020-10-31T00:53:21Z</time>
      </trkpt>
      <trkpt lat="50.33959" lon="4.27699">
        <ele>152.01</ele>
        <time>2020-10-31T00:54:01Z</time>
      </trkpt>
      <trkpt lat="50.33971" lon="4.2762">
        <ele>158.098</ele>
        <time>2020-10-31T00:54:41Z</time>
      </trkpt>
      <trkpt lat="50.33986" lon="4.27557">
        <ele>158.058</ele>
        <time>2020-10-31T00:55:21Z</time>
      </trkpt>
      <trkpt lat="50.33991" lon="4.27519">
        <ele>162.084</ele>
        <time>2020-10-31T00:56:01Z</time>
      </trkpt>
      <trkpt lat="50.33995" lon="4.27485">
        <ele>162.067</ele>
        <time>2020-10-31T00:56:41Z</time>
      </trkpt>
      <trkpt lat="50.34002" lon="4.27452">
        <ele>164.081</ele>
        <time>2020-10-31T00:57:21Z</time>
      </trkpt>
      <trkpt lat="50.33999" lon="4.27413">
        <ele>164.036</ele>
        <time>2020-10-31T00:58:01Z</time>
      </trkpt>
      <trkpt lat="50.33998" lon="4.27375">
        <ele>166.017</ele>
        <time>2020-10-31T00:58:41Z</time>
      </trkpt>
      <trkpt lat="50.34057" lon="4.27368">
        <ele>163.018</ele>
        <time>2020-10-31T00:59:21Z</time>
      </trkpt>
      <trkpt lat="50.34081" lon="4.2737">
        <ele>163.008</ele>
        <time>2020-10-31T01:00:01Z</time>
      </trkpt>
      <trkpt lat="50.34117" lon="4.27396">
        <ele>161.054</ele>
        <time>2020-10-31T01:00:41Z</time>
      </trkpt>
      <trkpt lat="50.34127" lon="4.27343">
        <ele>156.05</ele>
        <time>2020-10-31T01:01:21Z</time>
      </trkpt>
      <trkpt lat="50.34187" lon="4.27381">
        <ele>161.015</ele>
        <time>2020-10-31T01:02:01Z</time>
      </trkpt>
      <trkpt lat="50.34189" lon="4.27367">
        <ele>156.023</ele>
        <time>2020-10-31T01:02:41Z</time>
      </trkpt>
      <trkpt lat="50.34167" lon="4.27369">
        <ele>156.013</ele>
        <time>2020-10-31T01:03:21Z</time>
      </trkpt>
      <trkpt lat="50.34139" lon="4.27352">
        <ele>156.089</ele>
        <time>2020-10-31T01:04:01Z</time>
      </trkpt>
      <trkpt lat="50.3413" lon="4.27303">
        <ele>156.052</ele>
        <time>2020-10-31T01:04:41Z</time>
      </trkpt>
      <trkpt lat="50.34113" lon="4.27275">
        <ele>164.076</ele>
        <time>2020-10-31T01:05:21Z</time>
      </trkpt>
      <trkpt lat="50.34099" lon="4.27187">
        <ele>159.063</ele>
        <time>2020-10-31T01:06:01Z</time>
      </trkpt>
      <trkpt lat="50.34097" lon="4.27129">
        <ele>159.044</ele>
        <time>2020-10-31T01:06:41Z</time>
      </trkpt>
      <trkpt lat="50.34129" lon="4.27048">
        <ele>121.018</ele>
        <time>2020-10-31T01:07:21Z</time>
      </trkpt>
      <trkpt lat="50.34146" lon="4.26991">
        <ele>119.008</ele>
        <time>2020-10-31T01:08:01Z</time>
      </trkpt>
      <trkpt lat="50.34192" lon="4.26872">
        <ele>118.047</ele>
        <time>2020-10-31T01:08:41Z</time>
      </trkpt>
      <trkpt lat="50.34217" lon="4.26831">
        <ele>116.033</ele>
        <time>2020-10-31T01:09:21Z</time>
      </trkpt>
      <trkpt lat="50.34284" lon="4.26754">
        <ele>118.078</ele>
        <time>2020-10-31T01:10:01Z</time>
      </trkpt>
      <trkpt lat="50.34315" lon="4.26723">
        <ele>117.036</ele>
        <time>2020-10-31T01:10:41Z</time>
      </trkpt>
      <trkpt lat="50.34333" lon="4.26686">
        <ele>118.076</ele>
        <time>2020-10-31T01:11:21Z</time>
      </trkpt>
      <trkpt lat="50.34384" lon="4.26567">
        <ele>116.082</ele>
        <time>2020-10-31T01:12:01Z</time>
      </trkpt>
      <trkpt lat="50.34417" lon="4.26587">
        <ele>116.015</ele>
        <time>2020-10-31T01:12:41Z</time>
      </trkpt>
      <trkpt lat="50.34423" lon="4.26541">
        <ele>118.079</ele>
        <time>2020-10-31T01:13:21Z</time>
      </trkpt>
      <trkpt lat="50.34436" lon="4.26477">
        <ele>118.022</ele>
        <time>2020-10-31T01:14:01Z</time>
      </trkpt>
      <trkpt lat="50.34456" lon="4.26391">
        <ele>121.062</ele>
        <time>2020-10-31T01:14:41Z</time>
      </trkpt>
      <trkpt lat="50.34435" lon="4.26409">
        <ele>121.008</ele>
        <time>2020-10-31T01:15:21Z</time>
      </trkpt>
      <trkpt lat="50.3441" lon="4.26426">
        <ele>121.008</ele>
        <time>2020-10-31T01:16:01Z</time>
      </trkpt>
      <trkpt lat="50.34491" lon="4.26478">
        <ele>118.063</ele>
        <time>2020-10-31T01:16:41Z</time>
      </trkpt>
      <trkpt lat="50.34495" lon="4.26425">
        <ele>119.089</ele>
        <time>2020-10-31T01:17:21Z</time>
      </trkpt>
      <trkpt lat="50.34502" lon="4.26397">
        <ele>119.044</ele>
        <time>2020-10-31T01:18:01Z</time>
      </trkpt>
      <trkpt lat="50.34499" lon="4.26362">
        <ele>120.072</ele>
        <time>2020-10-31T01:18:41Z</time>
      </trkpt>
      <trkpt lat="50.34518" lon="4.26252">
        <ele>123.032</ele>
        <time>2020-10-31T01:19:21Z</time>
      </trkpt>
      <trkpt lat="50.34534" lon="4.26143">
        <ele>127.048</ele>
        <time>2020-10-31T01:20:01Z</time>
      </trkpt>
      <trkpt lat="50.34537" lon="4.26075">
        <ele>130.061</ele>
        <time>2020-10-31T01:20:41Z</time>
      </trkpt>
      <trkpt lat="50.34539" lon="4.25983">
        <ele>135.075</ele>
        <time>2020-10-31T01:21:21Z</time>
      </trkpt>
      <trkpt lat="50.34542" lon="4.25919">
        <ele>119.016</ele>
        <time>2020-10-31T01:22:01Z</time>
      </trkpt>
      <trkpt lat="50.34547" lon="4.25871">
        <ele>121.076</ele>
        <time>2020-10-31T01:22:41Z</time>
      </trkpt>
      <trkpt lat="50.34567" lon="4.25816">
        <ele>121.013</ele>
        <time>2020-10-31T01:23:21Z</time>
      </trkpt>
      <trkpt lat="50.34591" lon="4.25766">
        <ele>121.008</ele>
        <time>2020-10-31T01:24:01Z</time>
      </trkpt>
      <trkpt lat="50.34624" lon="4.25725">
        <ele>121.082</ele>
        <time>2020-10-31T01:24:41Z</time>
      </trkpt>
      <trkpt lat="50.34666" lon="4.25671">
        <ele>119.078</ele>
        <time>2020-10-31T01:25:21Z</time>
      </trkpt>
      <trkpt lat="50.34696" lon="4.25642">
        <ele>119.083</ele>
        <time>2020-10-31T01:26:01Z</time>
      </trkpt>
      <trkpt lat="50.34732" lon="4.25609">
        <ele>118.051</ele>
        <time>2020-10-31T01:26:41Z</time>
      </trkpt>
      <trkpt lat="50.34759" lon="4.25596">
        <ele>118.091</ele>
        <time>2020-10-31T01:27:21Z</time>
      </trkpt>
      <trkpt lat="50.34803" lon="4.25586">
        <ele>125.037</ele>
        <time>2020-10-31T01:28:01Z</time>
      </trkpt>
      <trkpt lat="50.34851" lon="4.25578">
        <ele>125.05</ele>
        <time>2020-10-31T01:28:41Z</time>
      </trkpt>
      <trkpt lat="50.34882" lon="4.25561">
        <ele>138.064</ele>
        <time>2020-10-31T01:29:21Z</time>
      </trkpt>
      <trkpt lat="50.34914" lon="4.2553">
        <ele>128.033</ele>
        <time>2020-10-31T01:30:01Z</time>
      </trkpt>
      <trkpt lat="50.34932" lon="4.25482">
        <ele>128.023</ele>
        <time>2020-10-31T01:30:41Z</time>
      </trkpt>
      <trkpt lat="50.34945" lon="4.25433">
        <ele>121.015</ele>
        <time>2020-10-31T01:31:21Z</time>
      </trkpt>
      <trkpt lat="50.34961" lon="4.25349">
        <ele>136.008</ele>
        <time>2020-10-31T01:32:01Z</time>
      </trkpt>
      <trkpt lat="50.34974" lon="4.25379">
        <ele>140.084</ele>
        <time>2020-10-31T01:32:41Z</time>
      </trkpt>
      <trkpt lat="50.34965" lon="4.25441">
        <ele>140.02</ele>
        <time>2020-10-31T01:33:21Z</time>
      </trkpt>
      <trkpt lat="50.34948" lon="4.25527">
        <ele>128.065</ele>
        <time>2020-10-31T01:34:01Z</time>
      </trkpt>
      <trkpt lat="50.34923" lon="4.25579">
        <ele>138.063</ele>
        <time>2020-10-31T01:34:41Z</time>
      </trkpt>
      <trkpt lat="50.34918" lon="4.2562">
        <ele>138.083</ele>
        <time>2020-10-31T01:35:21Z</time>
      </trkpt>
      <trkpt lat="50.34929" lon="4.25714">
        <ele>142.089</ele>
        <time>2020-10-31T01:36:01Z</time>
      </trkpt>
      <trkpt lat="50.34963" lon="4.25873">
        <ele>146.042</ele>
        <time>2020-10-31T01:36:41Z</time>
      </trkpt>
      <trkpt lat="50.34973" lon="4.25904">
        <ele>143.026</ele>
        <time>2020-10-31T01:37:21Z</time>
      </trkpt>
      <trkpt lat="50.34974" lon="4.25953">
        <ele>143.048</ele>
        <time>2020-10-31T01:38:01Z</time>
      </trkpt>
      <trkpt lat="50.34979" lon="4.26001">
        <ele>143.061</ele>
        <time>2020-10-31T01:38:41Z</time>
      </trkpt>
      <trkpt lat="50.34973" lon="4.2605">
        <ele>142.017</ele>
        <time>2020-10-31T01:39:21Z</time>
      </trkpt>
      <trkpt lat="50.34971" lon="4.26097">
        <ele>142.008</ele>
        <time>2020-10-31T01:40:01Z</time>
      </trkpt>
      <trkpt lat="50.34981" lon="4.26154">
        <ele>138.045</ele>
        <time>2020-10-31T01:40:41Z</time>
      </trkpt>
      <trkpt lat="50.35006" lon="4.26179">
        <ele>138.021</ele>
        <time>2020-10-31T01:41:21Z</time>
      </trkpt>
      <trkpt lat="50.35009" lon="4.26222">
        <ele>134.026</ele>
        <time>2020-10-31T01:42:01Z</time>
      </trkpt>
      <trkpt lat="50.35007" lon="4.26275">
        <ele>134.084</ele>
        <time>2020-10-31T01:42:41Z</time>
      </trkpt>
      <trkpt lat="50.35026" lon="4.2628">
        <ele>134.074</ele>
        <time>2020-10-31T01:43:21Z</time>
      </trkpt>
      <trkpt lat="50.35057" lon="4.26308">
        <ele>137.02</ele>
        <time>2020-10-31T01:44:01Z</time>
      </trkpt>
      <trkpt lat="50.35069" lon="4.26346">
        <ele>137.093</ele>
        <time>2020-10-31T01:44:41Z</time>
      </trkpt>
      <trkpt lat="50.35092" lon="4.26363">
        <ele>137.047</ele>
        <time>2020-10-31T01:45:21Z</time>
      </trkpt>
      <trkpt lat="50.35087" lon="4.26412">
        <ele>146.073</ele>
        <time>2020-10-31T01:46:01Z</time>
      </trkpt>
      <trkpt lat="50.35079" lon="4.26467">
        <ele>153.085</ele>
        <time>2020-10-31T01:46:41Z</time>
      </trkpt>
      <trkpt lat="50.35082" lon="4.26543">
        <ele>158.013</ele>
        <time>2020-10-31T01:47:21Z</time>
      </trkpt>
      <trkpt lat="50.35081" lon="4.2659">
        <ele>158.008</ele>
        <time>2020-10-31T01:48:01Z</time>
      </trkpt>
      <trkpt lat="50.35059" lon="4.26574">
        <ele>158.068</ele>
        <time>2020-10-31T01:48:41Z</time>
      </trkpt>
      <trkpt lat="50.35038" lon="4.26589">
        <ele>157.024</ele>
        <time>2020-10-31T01:49:21Z</time>
      </trkpt>
      <trkpt lat="50.35008" lon="4.26589">
        <ele>157.029</ele>
        <time>2020-10-31T01:50:01Z</time>
      </trkpt>
      <trkpt lat="50.34958" lon="4.26568">
        <ele>158.097</ele>
        <time>2020-10-31T01:50:41Z</time>
      </trkpt>
      <trkpt lat="50.3492" lon="4.26553">
        <ele>158.097</ele>
        <time>2020-10-31T01:51:21Z</time>
      </trkpt>
      <trkpt lat="50.34882" lon="4.26548">
        <ele>158.093</ele>
        <time>2020-10-31T01:52:01Z</time>
      </trkpt>
      <trkpt lat="50.34848" lon="4.26544">
        <ele>157.076</ele>
        <time>2020-10-31T01:52:41Z</time>
      </trkpt>
      <trkpt lat="50.34827" lon="4.2654">
        <ele>152.05</ele>
        <time>2020-10-31T01:53:21Z</time>
      </trkpt>
      <trkpt lat="50.34799" lon="4.2654">
        <ele>152.034</ele>
        <time>2020-10-31T01:54:01Z</time>
      </trkpt>
      <trkpt lat="50.34764" lon="4.26532">
        <ele>146.055</ele>
        <time>2020-10-31T01:54:41Z</time>
      </trkpt>
      <trkpt lat="50.3474" lon="4.26517">
        <ele>146.01</ele>
        <time>2020-10-31T01:55:21Z</time>
      </trkpt>
      <trkpt lat="50.34727" lon="4.26502">
        <ele>146.008</ele>
        <time>2020-10-31T01:56:01Z</time>
      </trkpt>
      <trkpt lat="50.3471" lon="4.26496">
        <ele>146.084</ele>
        <time>2020-10-31T01:56:41Z</time>
      </trkpt>
      <trkpt lat="50.34688" lon="4.2651">
        <ele>139.04</ele>
        <time>2020-10-31T01:57:21Z</time>
      </trkpt>
      <trkpt lat="50.34673" lon="4.26543">
        <ele>150.075</ele>
        <time>2020-10-31T01:58:01Z</time>
      </trkpt>
      <trkpt lat="50.34662" lon="4.26556">
        <ele>150.053</ele>
        <time>2020-10-31T01:58:41Z</time>
      </trkpt>
    </trkseg>
  </trk>
</gpx>